• Join FlightAware (Why Join?)
  • Login
  • US Flag 
07:09AM EDT


 

Airport Tracker/Info


-or-


 

Live Flight TrackerFlight Track Log ✈ CTL61 ✈ 19-Apr-2013 ✈ KBLF - KCRW

Flight Track Log - Related Links

Times and Time Zones

All times are in EDT time to prevent confusion due to time zone crossing. See the CTL61 flight status page for this flight to view local times or setup timezone preferences in your user account.

Time Position Orientation Groundspeed Altitude Reporting Facility
EDT Latitude Longitude Course Direction KTS MPH feet Rate Location/Type
10:41PM 37.3347 -81.2408 326° Northwest 103 119 5,600  Level Indianapolis Center
10:42PM 37.3628 -81.2578 334° Northwest 109 125 5,900 180 Climbing Indianapolis Center
10:43PM 37.4008 -81.2717 344° North 131 151 6,000  Climbing Indianapolis Center
10:44PM 37.4422 -81.2867 344° North 149 171 5,900 -60 Descending Indianapolis Center
10:45PM 37.4822 -81.2983 347° North 150 173 5,900  Level Indianapolis Center
10:46PM 37.5300 -81.3122 347° North 151 174 5,900  Level Indianapolis Center
10:47PM 37.5694 -81.3231 348° North 149 171 6,000  Climbing Indianapolis Center
10:48PM 37.6103 -81.3344 348° North 154 177 6,000 -60 Level Indianapolis Center
10:49PM 37.6508 -81.3469 346° North 155 178 5,900 -60 Descending Indianapolis Center
10:50PM 37.6875 -81.3578 347° North 145 167 5,900  Level Indianapolis Center
10:51PM 37.7381 -81.3719 348° North 152 175 5,900 -60 Level Indianapolis Center
10:52PM 37.7794 -81.3836 347° North 155 178 5,800 -360 Descending Indianapolis Center
10:53PM 37.8294 -81.3994 346° North 170 196 5,200 -480 Descending Indianapolis Center
10:54PM 37.8728 -81.4136 346° North 164 189 4,900 -180 Descending Indianapolis Center
10:55PM 37.9114 -81.4292 342° North 151 174 4,900  Level Indianapolis Center
10:56PM 37.9522 -81.4411 347° North 150 173 5,000  Climbing Indianapolis Center
10:57PM 37.9953 -81.4544 346° North 156 180 5,000 -120 Level Indianapolis Center
10:58PM 38.0361 -81.4667 347° North 153 176 4,800 -240 Descending Indianapolis Center
10:59PM 38.0786 -81.4808 345° North 155 178 4,600 -120 Descending Indianapolis Center
11:00PM 38.1217 -81.4917 349° North 157 181 4,600 -240 Level Indianapolis Center
11:01PM 38.1650 -81.5053 346° North 159 183 4,200 -300 Descending Indianapolis Center
11:02PM 38.2111 -81.5111 354° North 164 189 4,000 -420 Descending Indianapolis Center
11:03PM 38.2550 -81.5197 351° North 161 185 3,400 -600 Descending Indianapolis Center
11:04PM 38.2958 -81.5339 345° North 156 180 2,800 -660 Descending Indianapolis Center
11:05PM 38.3328 -81.5447 347° North 145 167 2,100 -600 Descending Indianapolis Center
11:06PM 38.3642 -81.5533 348° North 131 151 1,600 -420 Descending Indianapolis Center
11:07PM 38.3883 -81.5675 335° Northwest 113 130 1,300 -300 Descending Indianapolis Center
11:09PM 38.3667 -81.5833 North  Level FlightAware Approximate